createdAt,value
2023-04-02T00:02:22.660Z,1.30
2023-04-02T00:05:31.959Z,1.05
2023-04-02T00:08:41.105Z,1.38
2023-04-02T00:11:54.847Z,1.08
2023-04-02T00:14:58.765Z,1.10
2023-04-02T00:18:01.983Z,1.03
2023-04-02T00:21:24.885Z,1.10
2023-04-02T00:24:27.950Z,1.30
2023-04-02T00:27:32.291Z,1.30
2023-04-02T00:30:35.383Z,1.30
2023-04-02T00:33:38.338Z,1.13
2023-04-02T00:36:42.130Z,1.30
2023-04-02T00:39:45.322Z,1.20
2023-04-02T00:42:50.002Z,1.10
2023-04-02T00:45:56.138Z,1.00
2023-04-02T00:49:10.994Z,1.10
2023-04-02T00:52:18.779Z,1.00
2023-04-02T00:55:25.442Z,0.95
2023-04-02T00:58:36.735Z,1.00
2023-04-02T01:01:42.740Z,0.90
2023-04-02T01:05:02.527Z,0.90
2023-04-02T01:08:05.737Z,0.82
2023-04-02T01:11:17.304Z,0.80
2023-04-02T01:14:44.179Z,0.70
2023-04-02T01:18:06.483Z,0.93
2023-04-02T01:21:15.380Z,1.10
2023-04-02T01:24:18.563Z,0.98
2023-04-02T01:27:28.723Z,1.02
2023-04-02T01:30:33.281Z,1.00
2023-04-02T01:33:36.739Z,1.30
2023-04-02T01:37:02.766Z,1.70
2023-04-02T01:40:24.335Z,0.82
2023-04-02T01:43:32.898Z,1.20
2023-04-02T01:46:37.190Z,1.20
2023-04-02T01:49:41.812Z,0.97
2023-04-02T01:52:45.224Z,1.10
2023-04-02T01:55:57.261Z,1.10
2023-04-02T01:59:00.493Z,1.10
2023-04-02T02:02:07.052Z,0.93
2023-04-02T02:05:15.729Z,1.10
2023-04-02T02:08:24.869Z,1.10
2023-04-02T02:11:28.998Z,1.02
2023-04-02T02:14:32.443Z,1.15
2023-04-02T02:17:35.515Z,1.02
2023-04-02T02:20:38.517Z,0.90
2023-04-02T02:23:41.503Z,1.00
2023-04-02T02:26:44.608Z,0.90
2023-04-02T02:29:48.826Z,0.77
2023-04-02T02:33:04.173Z,0.90
2023-04-02T02:36:41.399Z,0.80
2023-04-02T02:39:45.824Z,1.07
2023-04-02T02:42:51.495Z,0.93
2023-04-02T02:45:54.967Z,0.70
2023-04-02T02:48:58.161Z,0.80
2023-04-02T02:52:10.550Z,1.00
2023-04-02T02:55:32.167Z,1.00
2023-04-02T02:58:58.066Z,1.10
2023-04-02T03:02:07.296Z,0.93
2023-04-02T03:05:15.957Z,0.90
2023-04-02T03:08:28.412Z,1.00
2023-04-02T03:11:41.061Z,1.10
2023-04-02T03:14:53.916Z,0.90
2023-04-02T03:18:14.807Z,1.00
2023-04-02T03:21:48.811Z,1.15
2023-04-02T03:25:17.577Z,1.20
2023-04-02T03:28:23.365Z,1.20
2023-04-02T03:31:41.850Z,1.40
2023-04-02T03:34:52.332Z,1.52
2023-04-02T03:38:12.903Z,1.60
2023-04-02T03:41:23.985Z,2.07
2023-04-02T03:44:34.555Z,1.90
2023-04-02T03:47:46.838Z,2.00
2023-04-02T03:51:14.667Z,2.15
2023-04-02T03:54:17.935Z,1.90
2023-04-02T03:57:26.683Z,2.90
2023-04-02T04:00:51.870Z,2.77
2023-04-02T04:03:56.065Z,1.70
2023-04-02T04:06:59.247Z,2.30
2023-04-02T04:10:02.444Z,3.10
2023-04-02T04:13:14.796Z,3.63
2023-04-02T04:16:20.670Z,1.80
2023-04-02T04:19:38.904Z,2.40
2023-04-02T04:22:42.018Z,2.10
2023-04-02T04:26:05.505Z,1.70
2023-04-02T04:29:12.614Z,1.70
2023-04-02T04:32:32.196Z,1.50
2023-04-02T04:35:40.082Z,1.92
2023-04-02T04:38:55.301Z,1.50
2023-04-02T04:41:59.962Z,1.80
2023-04-02T04:45:37.376Z,1.80
2023-04-02T04:48:50.035Z,1.70
2023-04-02T04:51:54.008Z,1.60
2023-04-02T04:54:57.923Z,1.50
2023-04-02T04:58:23.464Z,1.70
2023-04-02T05:01:50.448Z,1.57
2023-04-02T05:04:54.603Z,1.50
2023-04-02T05:08:16.006Z,1.70
2023-04-02T05:11:30.274Z,1.50
2023-04-02T05:14:53.917Z,1.65
2023-04-02T05:18:22.245Z,1.13
2023-04-02T05:21:33.844Z,1.50
2023-04-02T05:24:47.524Z,1.63
2023-04-02T05:28:12.343Z,1.40
2023-04-02T05:31:26.192Z,1.60
2023-04-02T05:34:35.275Z,1.70
2023-04-02T05:37:39.581Z,1.50
2023-04-02T05:40:44.493Z,1.30
2023-04-02T05:43:48.768Z,1.48
2023-04-02T05:46:56.100Z,1.48
2023-04-02T05:50:07.865Z,1.63
2023-04-02T05:53:36.743Z,1.60
2023-04-02T05:56:44.011Z,1.85
2023-04-02T05:59:55.436Z,1.40
2023-04-02T06:03:07.266Z,1.90
2023-04-02T06:06:20.543Z,1.50
2023-04-02T06:09:27.589Z,1.40
2023-04-02T06:12:51.145Z,1.60
2023-04-02T06:15:56.300Z,1.65
2023-04-02T06:19:07.693Z,1.30
2023-04-02T06:22:31.268Z,1.70
2023-04-02T06:25:56.452Z,1.53
2023-04-02T06:29:28.145Z,1.20
2023-04-02T06:32:32.637Z,1.30
2023-04-02T06:35:37.527Z,1.73
2023-04-02T06:38:40.917Z,1.63
2023-04-02T06:41:47.650Z,2.40
2023-04-02T06:45:26.675Z,1.70
2023-04-02T06:48:44.492Z,1.92
2023-04-02T06:51:47.571Z,2.00
2023-04-02T06:54:50.808Z,2.03
2023-04-02T06:57:53.900Z,1.80
2023-04-02T07:00:56.926Z,1.90
2023-04-02T07:04:28.880Z,1.65
2023-04-02T07:07:31.984Z,1.77
2023-04-02T07:10:38.348Z,2.10
2023-04-02T07:13:41.927Z,2.40
2023-04-02T07:16:45.201Z,2.10
2023-04-02T07:19:49.740Z,1.92
2023-04-02T07:22:55.610Z,2.00
2023-04-02T07:25:59.447Z,2.33
2023-04-02T07:29:02.370Z,2.50
2023-04-02T07:32:05.617Z,2.25
2023-04-02T07:35:10.315Z,2.03
2023-04-02T07:38:13.249Z,2.10
2023-04-02T07:41:16.668Z,2.10
2023-04-02T07:44:19.608Z,2.83
2023-04-02T07:47:22.598Z,2.28
2023-04-02T07:50:25.575Z,2.47
2023-04-02T07:53:37.901Z,2.33
2023-04-02T07:56:40.824Z,2.60
2023-04-02T07:59:43.779Z,2.73
2023-04-02T08:02:47.093Z,2.78
2023-04-02T08:05:59.006Z,3.10
2023-04-02T08:09:02.008Z,2.70
2023-04-02T08:12:05.158Z,2.50
2023-04-02T08:15:08.761Z,3.07
2023-04-02T08:18:11.767Z,2.40
2023-04-02T08:21:16.318Z,3.00
2023-04-02T08:24:19.762Z,2.65
2023-04-02T08:27:23.718Z,2.90
2023-04-02T08:30:27.115Z,2.90
2023-04-02T08:33:30.548Z,2.80
2023-04-02T08:36:38.456Z,2.70
2023-04-02T08:39:41.616Z,2.25
2023-04-02T08:42:50.645Z,2.50
2023-04-02T08:46:10.024Z,2.43
2023-04-02T08:49:15.307Z,2.83
2023-04-02T08:52:35.888Z,2.67
2023-04-02T08:55:42.804Z,2.80
2023-04-02T08:58:48.794Z,2.70
2023-04-02T09:02:06.386Z,2.67
2023-04-02T09:05:16.331Z,2.20
2023-04-02T09:08:21.043Z,2.55
2023-04-02T09:11:27.743Z,2.25
2023-04-02T09:15:01.119Z,2.40
2023-04-02T09:18:16.976Z,2.70
2023-04-02T09:21:31.777Z,2.42
2023-04-02T09:24:35.050Z,3.00
2023-04-02T09:27:38.009Z,2.92
2023-04-02T09:31:12.986Z,3.23
2023-04-02T09:34:32.769Z,2.73
2023-04-02T09:37:37.312Z,2.47
2023-04-02T09:41:05.290Z,3.10
2023-04-02T09:44:22.349Z,2.70
2023-04-02T09:47:26.407Z,3.03
2023-04-02T09:50:33.460Z,3.17
2023-04-02T09:53:38.683Z,3.33
2023-04-02T09:57:01.557Z,2.50
2023-04-02T10:00:26.006Z,2.42
2023-04-02T10:03:39.752Z,3.00
2023-04-02T10:06:48.881Z,2.60
2023-04-02T10:09:58.744Z,3.40
2023-04-02T10:13:17.120Z,2.90
2023-04-02T10:16:32.881Z,3.10
2023-04-02T10:19:36.616Z,2.60
2023-04-02T10:22:39.527Z,2.77
2023-04-02T10:25:49.554Z,2.30
2023-04-02T10:29:30.158Z,2.75
2023-04-02T10:32:46.860Z,2.53
2023-04-02T10:36:30.392Z,2.87
2023-04-02T10:39:54.091Z,3.10
2023-04-02T10:43:15.147Z,2.88
2023-04-02T10:46:25.306Z,3.00
2023-04-02T10:49:34.702Z,3.58
2023-04-02T10:53:05.644Z,4.30
2023-04-02T10:56:10.063Z,3.80
2023-04-02T10:59:34.686Z,3.33
2023-04-02T11:02:59.992Z,3.80
2023-04-02T11:06:20.495Z,3.50
2023-04-02T11:09:26.625Z,3.50
2023-04-02T11:12:51.614Z,3.83
2023-04-02T11:15:54.692Z,3.55
2023-04-02T11:19:16.088Z,3.95
2023-04-02T11:22:21.449Z,2.88
2023-04-02T11:25:24.808Z,2.77
2023-04-02T11:28:28.339Z,3.30
2023-04-02T11:31:31.365Z,3.35
2023-04-02T11:34:59.813Z,2.97
2023-04-02T11:38:12.564Z,3.72
2023-04-02T11:41:18.664Z,3.53
2023-04-02T11:44:24.915Z,3.83
2023-04-02T11:47:30.010Z,4.30
2023-04-02T11:50:40.991Z,3.83
2023-04-02T11:53:44.204Z,3.88
2023-04-02T11:57:15.881Z,4.30
2023-04-02T12:00:52.715Z,3.07
2023-04-02T12:04:31.866Z,3.78
2023-04-02T12:07:52.409Z,4.15
2023-04-02T12:10:59.773Z,2.30
2023-04-02T12:14:07.345Z,4.37
2023-04-02T12:17:37.246Z,4.40
2023-04-02T12:20:40.244Z,2.28
2023-04-02T12:23:46.084Z,2.78
2023-04-02T12:26:49.041Z,4.28
2023-04-02T12:29:52.350Z,3.90
2023-04-02T12:32:56.969Z,3.73
2023-04-02T12:36:06.899Z,3.90
2023-04-02T12:39:17.082Z,3.90
2023-04-02T12:42:28.182Z,4.10
2023-04-02T12:45:33.340Z,4.20
2023-04-02T12:48:36.452Z,3.63
2023-04-02T12:51:39.398Z,4.68
2023-04-02T12:54:46.635Z,5.03
2023-04-02T12:57:50.725Z,4.95
2023-04-02T13:01:03.791Z,4.73
2023-04-02T13:04:13.705Z,4.10
2023-04-02T13:07:18.372Z,3.70
2023-04-02T13:10:25.820Z,3.50
2023-04-02T13:13:32.939Z,3.03
2023-04-02T13:16:38.185Z,3.53
2023-04-02T13:19:41.198Z,4.00
2023-04-02T13:22:44.147Z,3.13
2023-04-02T13:25:47.137Z,2.78
2023-04-02T13:28:56.889Z,2.83
2023-04-02T13:32:01.798Z,2.43
2023-04-02T13:35:05.118Z,1.40
2023-04-02T13:38:08.712Z,2.90
2023-04-02T13:41:24.363Z,1.73
2023-04-02T13:44:29.442Z,2.70
2023-04-02T13:47:32.412Z,2.43
2023-04-02T13:50:35.838Z,2.60
2023-04-02T13:53:39.490Z,3.20
2023-04-02T13:56:42.710Z,2.90
2023-04-02T13:59:45.727Z,3.05
2023-04-02T14:02:51.185Z,2.70
2023-04-02T14:05:59.903Z,2.60
2023-04-02T14:09:15.700Z,1.65
2023-04-02T14:12:41.553Z,1.42
2023-04-02T14:16:04.122Z,1.70
2023-04-02T14:19:17.730Z,2.50
2023-04-02T14:22:52.313Z,2.70
2023-04-02T14:26:19.325Z,3.28
2023-04-02T14:29:48.328Z,2.60
2023-04-02T14:33:42.849Z,2.28
2023-04-02T14:36:51.154Z,1.90
2023-04-02T14:40:12.623Z,2.20
2023-04-02T14:43:23.461Z,2.10
2023-04-02T14:46:27.108Z,1.60
2023-04-02T14:49:32.710Z,2.05
2023-04-02T14:52:35.706Z,1.80
2023-04-02T14:55:42.830Z,1.40
2023-04-02T14:58:49.396Z,3.72
2023-04-02T15:01:58.854Z,2.10
2023-04-02T15:05:05.839Z,1.90
2023-04-02T15:08:22.754Z,2.17
2023-04-02T15:11:31.283Z,3.57
2023-04-02T15:14:39.325Z,2.03
2023-04-02T15:17:42.300Z,2.05
2023-04-02T15:20:59.989Z,1.92
2023-04-02T15:24:37.616Z,2.20
2023-04-02T15:27:43.276Z,2.37
2023-04-02T15:30:46.360Z,2.72
2023-04-02T15:34:13.983Z,5.15
2023-04-02T15:37:43.415Z,3.92
2023-04-02T15:41:23.313Z,2.80
2023-04-02T15:44:26.574Z,3.80
2023-04-02T15:47:46.665Z,3.85
2023-04-02T15:50:52.599Z,3.97
2023-04-02T15:54:03.962Z,4.20
2023-04-02T15:57:39.225Z,4.70
2023-04-02T16:01:00.988Z,4.07
2023-04-02T16:04:20.467Z,3.83
2023-04-02T16:07:24.599Z,4.07
2023-04-02T16:10:42.102Z,4.82
2023-04-02T16:13:47.454Z,4.67
2023-04-02T16:16:51.389Z,4.57
2023-04-02T16:20:29.738Z,4.88
2023-04-02T16:23:35.584Z,5.35
2023-04-02T16:26:48.045Z,5.72
2023-04-02T16:30:09.418Z,6.43
2023-04-02T16:33:30.477Z,6.80
2023-04-02T16:36:42.965Z,5.75
2023-04-02T16:40:05.044Z,4.72
2023-04-02T16:43:19.011Z,4.05
2023-04-02T16:46:40.914Z,4.30
2023-04-02T16:50:13.100Z,4.07
2023-04-02T16:53:19.756Z,4.10
2023-04-02T16:56:28.894Z,4.60
2023-04-02T16:59:54.815Z,5.40
2023-04-02T17:03:14.547Z,3.80
2023-04-02T17:06:41.009Z,4.30
2023-04-02T17:09:51.529Z,4.18
2023-04-02T17:13:16.180Z,4.30
2023-04-02T17:16:21.929Z,5.32
2023-04-02T17:19:26.185Z,6.90
2023-04-02T17:22:29.199Z,3.10
2023-04-02T17:25:34.241Z,1.75
2023-04-02T17:28:37.206Z,2.58
2023-04-02T17:31:42.004Z,1.35
2023-04-02T17:34:45.052Z,1.70
2023-04-02T17:38:02.908Z,2.83
2023-04-02T17:41:23.330Z,2.38
2023-04-02T17:45:01.511Z,2.33
2023-04-02T17:48:16.582Z,2.50
2023-04-02T17:51:39.982Z,1.90
2023-04-02T17:54:51.601Z,2.30
2023-04-02T17:58:01.584Z,2.30
2023-04-02T18:01:10.612Z,2.40
2023-04-02T18:04:35.181Z,2.80
2023-04-02T18:07:59.267Z,2.70
2023-04-02T18:11:20.811Z,2.30
2023-04-02T18:14:39.753Z,3.40
2023-04-02T18:17:50.070Z,3.15
2023-04-02T18:21:05.030Z,2.88
2023-04-02T18:24:32.367Z,2.93
2023-04-02T18:27:59.110Z,3.03
2023-04-02T18:31:28.781Z,3.28
2023-04-02T18:34:41.979Z,3.28
2023-04-02T18:38:18.349Z,2.63
2023-04-02T18:41:27.085Z,2.90
2023-04-02T18:44:57.564Z,3.40
2023-04-02T18:48:23.750Z,3.08
2023-04-02T18:51:28.527Z,2.97
2023-04-02T18:54:53.931Z,3.38
2023-04-02T18:58:02.574Z,4.10
2023-04-02T19:01:09.935Z,5.63
2023-04-02T19:04:19.788Z,21.52
2023-04-02T19:07:22.739Z,8.18
2023-04-02T19:10:34.889Z,4.68
2023-04-02T19:13:37.854Z,3.43
2023-04-02T19:17:22.537Z,3.13
2023-04-02T19:20:30.522Z,3.10
2023-04-02T19:23:44.138Z,3.05
2023-04-02T19:26:49.480Z,2.72
2023-04-02T19:30:11.703Z,2.90
2023-04-02T19:33:29.793Z,3.37
2023-04-02T19:36:43.038Z,3.00
2023-04-02T19:39:52.198Z,2.50
2023-04-02T19:42:55.400Z,2.80
2023-04-02T19:45:58.403Z,3.20
2023-04-02T19:49:15.362Z,3.17
2023-04-02T19:52:19.446Z,2.97
2023-04-02T19:55:22.390Z,2.53
2023-04-02T19:58:30.014Z,2.95
2023-04-02T20:01:32.968Z,3.23
2023-04-02T20:04:36.305Z,3.67
2023-04-02T20:07:39.241Z,3.60
2023-04-02T20:10:42.306Z,3.78
2023-04-02T20:13:45.435Z,3.40
2023-04-02T20:16:48.512Z,3.13
2023-04-02T20:19:51.502Z,2.83
2023-04-02T20:22:54.449Z,2.60
2023-04-02T20:25:57.775Z,2.90
2023-04-02T20:29:00.814Z,2.47
2023-04-02T20:32:03.755Z,2.27
2023-04-02T20:35:06.972Z,2.00
2023-04-02T20:38:11.725Z,2.40
2023-04-02T20:41:16.207Z,1.75
2023-04-02T20:44:19.108Z,2.30
2023-04-02T20:47:22.148Z,2.07
2023-04-02T20:50:25.176Z,1.87
2023-04-02T20:53:29.871Z,1.65
2023-04-02T20:56:33.041Z,2.45
2023-04-02T20:59:36.003Z,1.90
2023-04-02T21:02:39.035Z,1.20
2023-04-02T21:05:46.098Z,1.00
2023-04-02T21:08:49.298Z,0.80
2023-04-02T21:11:52.355Z,0.90
2023-04-02T21:15:00.238Z,1.00
2023-04-02T21:18:04.951Z,0.67
2023-04-02T21:21:08.205Z,0.70
2023-04-02T21:24:11.346Z,0.80
2023-04-02T21:27:14.304Z,1.90
2023-04-02T21:30:17.449Z,1.10
2023-04-02T21:33:20.618Z,1.10
2023-04-02T21:36:37.166Z,1.50
2023-04-02T21:39:40.558Z,1.98
2023-04-02T21:42:43.584Z,2.03
2023-04-02T21:45:46.544Z,2.17
2023-04-02T21:48:49.975Z,2.13
2023-04-02T21:51:53.068Z,2.33
2023-04-02T21:54:56.068Z,2.10
2023-04-02T21:57:59.476Z,2.03
2023-04-02T22:01:03.374Z,2.47
2023-04-02T22:04:07.231Z,2.20
2023-04-02T22:07:10.282Z,2.30
2023-04-02T22:10:13.194Z,2.25
2023-04-02T22:13:16.208Z,2.22
2023-04-02T22:16:28.922Z,2.90
2023-04-02T22:19:33.071Z,2.70
2023-04-02T22:22:35.985Z,2.30
2023-04-02T22:25:38.938Z,2.55
2023-04-02T22:28:41.871Z,2.60
2023-04-02T22:31:44.820Z,2.40
2023-04-02T22:34:47.809Z,2.50
2023-04-02T22:37:50.759Z,2.40
2023-04-02T22:41:02.595Z,2.70
2023-04-02T22:44:05.573Z,2.30
2023-04-02T22:47:08.589Z,2.30
2023-04-02T22:50:11.731Z,2.53
2023-04-02T22:53:15.333Z,2.90
2023-04-02T22:56:22.090Z,2.92
2023-04-02T22:59:25.837Z,2.72
2023-04-02T23:02:28.915Z,2.75
2023-04-02T23:05:32.105Z,2.80
2023-04-02T23:08:36.240Z,3.17
2023-04-02T23:11:39.167Z,3.47
2023-04-02T23:14:42.121Z,3.13
2023-04-02T23:17:45.178Z,3.50
2023-04-02T23:20:48.156Z,3.80
2023-04-02T23:23:51.509Z,3.27
2023-04-02T23:26:54.638Z,3.17
2023-04-02T23:29:57.624Z,3.50
2023-04-02T23:33:01.702Z,3.00
2023-04-02T23:36:21.796Z,3.40
2023-04-02T23:39:24.750Z,3.33
2023-04-02T23:42:28.417Z,3.00
2023-04-02T23:45:31.422Z,3.50
2023-04-02T23:48:34.430Z,3.58
2023-04-02T23:51:37.499Z,2.83
2023-04-02T23:54:40.483Z,3.67
2023-04-02T23:57:43.437Z,3.10
